createdAt,value
2019-03-01T00:01:43.516Z,93.93
2019-03-01T00:04:20.328Z,114.70
2019-03-01T00:07:00.172Z,112.60
2019-03-01T00:10:09.640Z,107.97
2019-03-01T00:13:04.730Z,114.07
2019-03-01T00:15:59.823Z,113.03
2019-03-01T00:19:11.826Z,115.50
2019-03-01T00:21:51.702Z,111.87
2019-03-01T00:24:52.499Z,109.50
2019-03-01T00:27:53.029Z,113.03
2019-03-01T00:30:55.092Z,114.27
2019-03-01T00:33:35.355Z,111.87
2019-03-01T00:36:28.853Z,108.17
2019-03-01T00:39:32.862Z,118.40
2019-03-01T00:42:15.738Z,113.67
2019-03-01T00:44:48.380Z,94.97
2019-03-01T00:47:18.115Z,117.23
2019-03-01T00:49:47.603Z,119.03
2019-03-01T00:52:17.121Z,95.80
2019-03-01T00:54:46.612Z,115.13
2019-03-01T00:57:16.069Z,112.73
2019-03-01T00:59:45.534Z,96.10
2019-03-01T01:02:15.031Z,106.13
2019-03-01T01:04:44.471Z,114.37
2019-03-01T01:07:14.025Z,107.93
2019-03-01T01:12:49.166Z,114.07
2019-03-01T01:15:19.287Z,103.80
2019-03-01T01:17:48.775Z,102.57
2019-03-01T01:20:18.339Z,110.83
2019-03-01T01:22:47.800Z,101.77
2019-03-01T01:25:17.296Z,113.30
2019-03-01T01:27:46.862Z,102.37
2019-03-01T01:30:16.731Z,102.43
2019-03-01T01:32:46.229Z,105.23
2019-03-01T01:35:15.684Z,104.50
2019-03-01T01:37:45.173Z,115.37
2019-03-01T01:40:14.706Z,108.83
2019-03-01T01:42:44.209Z,116.60
2019-03-01T01:45:13.825Z,98.23
2019-03-01T01:47:43.310Z,94.37
2019-03-01T01:50:13.078Z,100.77
2019-03-01T01:52:42.563Z,96.73
2019-03-01T01:55:12.036Z,100.13
2019-03-01T01:57:41.502Z,104.87
2019-03-01T02:00:13.873Z,87.87
2019-03-01T02:02:43.364Z,97.70
2019-03-01T02:05:12.895Z,73.70
2019-03-01T02:07:42.354Z,105.37
2019-03-01T02:10:12.133Z,91.23
2019-03-01T02:12:41.580Z,101.20
2019-03-01T02:15:13.994Z,114.60
2019-03-01T02:17:43.454Z,117.83
2019-03-01T02:20:13.933Z,111.07
2019-03-01T02:22:43.375Z,97.77
2019-03-01T02:25:14.613Z,100.57
2019-03-01T02:27:44.094Z,113.77
2019-03-01T02:30:17.949Z,119.93
2019-03-01T02:32:47.668Z,113.83
2019-03-01T02:35:19.127Z,108.97
2019-03-01T02:37:48.605Z,112.87
2019-03-01T02:40:18.778Z,112.93
2019-03-01T02:42:48.440Z,93.20
2019-03-01T02:45:22.310Z,71.40
2019-03-01T02:47:51.750Z,79.07
2019-03-01T02:50:22.071Z,59.97
2019-03-01T02:52:51.575Z,63.70
2019-03-01T02:55:22.374Z,57.70
2019-03-01T02:57:51.922Z,61.70
2019-03-01T03:00:29.980Z,57.70
2019-03-01T03:02:59.510Z,68.63
2019-03-01T03:05:28.985Z,50.43
2019-03-01T03:08:00.117Z,89.80
2019-03-01T03:10:29.609Z,75.20
2019-03-01T03:13:02.480Z,96.70
2019-03-01T03:15:33.630Z,63.53
2019-03-01T03:18:03.187Z,99.43
2019-03-01T03:20:32.649Z,99.07
2019-03-01T03:23:02.140Z,95.57
2019-03-01T03:25:31.634Z,87.80
2019-03-01T03:28:01.123Z,82.90
2019-03-01T03:30:30.587Z,101.47
2019-03-01T03:33:00.045Z,94.33
2019-03-01T03:35:29.505Z,98.17
2019-03-01T03:37:58.996Z,101.73
2019-03-01T03:40:28.462Z,96.47
2019-03-01T03:42:57.957Z,96.10
2019-03-01T03:45:27.442Z,97.20
2019-03-01T03:47:57.263Z,103.27
2019-03-01T03:50:26.753Z,102.03
2019-03-01T03:52:56.305Z,103.40
2019-03-01T03:55:26.967Z,94.50
2019-03-01T03:57:56.587Z,85.40
2019-03-01T04:00:27.512Z,74.70
2019-03-01T04:02:56.968Z,108.00
2019-03-01T04:05:26.426Z,85.17
2019-03-01T04:07:56.461Z,90.00
2019-03-01T04:10:25.919Z,90.13
2019-03-01T04:12:55.426Z,85.50
2019-03-01T04:15:24.840Z,93.73
2019-03-01T04:17:54.320Z,96.27
2019-03-01T04:20:23.776Z,96.90
2019-03-01T04:22:53.254Z,97.80
2019-03-01T04:25:22.748Z,104.07
2019-03-01T04:27:53.450Z,100.17
2019-03-01T04:30:23.101Z,91.47
2019-03-01T04:32:52.592Z,94.53
2019-03-01T04:35:22.049Z,93.70
2019-03-01T04:37:51.672Z,94.17
2019-03-01T04:40:21.156Z,108.40
2019-03-01T04:42:50.605Z,93.90
2019-03-01T04:45:20.252Z,99.03
2019-03-01T04:47:49.728Z,94.27
2019-03-01T04:50:19.660Z,100.83
2019-03-01T04:52:49.144Z,102.00
2019-03-01T04:55:24.864Z,87.53
2019-03-01T04:57:54.405Z,101.03
2019-03-01T05:00:26.057Z,104.20
2019-03-01T05:02:56.201Z,94.10
2019-03-01T05:05:26.221Z,114.13
2019-03-01T05:07:55.859Z,173.90
2019-03-01T05:10:25.309Z,249.33
2019-03-01T05:12:54.754Z,94.97
2019-03-01T05:15:25.387Z,82.80
2019-03-01T05:17:54.848Z,100.83
2019-03-01T05:20:24.325Z,92.50
2019-03-01T05:22:53.782Z,102.77
2019-03-01T05:25:23.267Z,98.03
2019-03-01T05:27:52.704Z,84.03
2019-03-01T05:30:22.158Z,85.53
2019-03-01T05:32:51.625Z,40.37
2019-03-01T05:35:21.099Z,84.37
2019-03-01T05:37:50.551Z,87.73
2019-03-01T05:40:20.197Z,70.70
2019-03-01T05:42:49.657Z,82.90
2019-03-01T05:45:25.927Z,87.47
2019-03-01T05:47:55.389Z,77.53
2019-03-01T05:50:24.896Z,80.40
2019-03-01T05:52:54.398Z,71.20
2019-03-01T05:55:23.855Z,69.13
2019-03-01T05:58:32.385Z,70.27
2019-03-01T06:01:25.119Z,58.27
2019-03-01T06:04:10.751Z,70.70
2019-03-01T06:07:13.091Z,87.93
2019-03-01T06:09:55.864Z,92.73
2019-03-01T06:12:47.641Z,82.83
2019-03-01T06:15:57.987Z,85.20
2019-03-01T06:19:01.064Z,92.97
2019-03-01T06:21:51.727Z,89.70
2019-03-01T06:24:50.001Z,94.07
2019-03-01T06:27:45.017Z,89.37
2019-03-01T06:30:27.419Z,91.43
2019-03-01T06:33:50.874Z,100.37
2019-03-01T06:36:33.476Z,72.07
2019-03-01T06:39:17.912Z,97.13
2019-03-01T06:42:17.282Z,103.80
2019-03-01T06:45:00.414Z,97.67
2019-03-01T06:47:45.994Z,92.83
2019-03-01T06:50:17.636Z,96.03
2019-03-01T06:52:47.155Z,75.73
2019-03-01T06:55:29.901Z,99.63
2019-03-01T06:57:59.425Z,112.53
2019-03-01T07:00:30.516Z,86.40
2019-03-01T07:03:01.260Z,120.83
2019-03-01T07:05:30.720Z,103.13
2019-03-01T07:08:00.250Z,93.17
2019-03-01T07:10:29.733Z,91.20
2019-03-01T07:12:59.177Z,100.07
2019-03-01T07:15:28.714Z,98.87
2019-03-01T07:17:58.206Z,94.10
2019-03-01T07:20:27.653Z,102.43
2019-03-01T07:22:57.101Z,105.10
2019-03-01T07:25:26.595Z,89.50
2019-03-01T07:27:56.060Z,90.13
2019-03-01T07:30:25.522Z,91.40
2019-03-01T07:32:55.021Z,79.83
2019-03-01T07:35:24.481Z,84.20
2019-03-01T07:37:53.976Z,96.03
2019-03-01T07:40:23.461Z,85.07
2019-03-01T07:42:52.915Z,85.60
2019-03-01T07:45:22.377Z,85.70
2019-03-01T07:47:51.845Z,92.57
2019-03-01T07:50:21.302Z,80.30
2019-03-01T07:52:50.754Z,42.17
2019-03-01T07:55:20.243Z,38.03
2019-03-01T07:57:50.579Z,50.20
2019-03-01T08:00:20.123Z,80.50
2019-03-01T08:02:49.935Z,55.77
2019-03-01T08:05:19.392Z,49.27
2019-03-01T08:07:56.140Z,42.17
2019-03-01T08:10:22.463Z,37.17
2019-03-01T08:12:51.224Z,48.23
2019-03-01T08:15:20.679Z,45.07
2019-03-01T08:17:50.161Z,36.97
2019-03-01T08:20:20.441Z,46.60
2019-03-01T08:22:49.922Z,48.87
2019-03-01T08:25:23.403Z,42.37
2019-03-01T08:27:50.855Z,69.23
2019-03-01T08:30:20.377Z,64.43
2019-03-01T08:32:49.845Z,34.90
2019-03-01T08:35:20.130Z,53.33
2019-03-01T08:37:53.208Z,33.30
2019-03-01T08:40:21.357Z,33.43
2019-03-01T08:42:50.811Z,48.80
2019-03-01T08:45:21.495Z,39.00
2019-03-01T08:47:51.171Z,45.83
2019-03-01T08:50:20.698Z,42.30
2019-03-01T08:52:50.151Z,38.90
2019-03-01T08:55:29.995Z,44.90
2019-03-01T08:58:03.378Z,35.80
2019-03-01T09:00:37.818Z,32.17
2019-03-01T09:03:22.312Z,47.27
2019-03-01T09:05:51.731Z,36.37
2019-03-01T09:08:21.187Z,48.13
2019-03-01T09:10:50.617Z,50.60
2019-03-01T09:13:20.114Z,44.23
2019-03-01T09:15:50.374Z,39.83
2019-03-01T09:18:19.900Z,81.90
2019-03-01T09:20:49.394Z,43.03
2019-03-01T09:23:25.098Z,59.73
2019-03-01T09:25:50.014Z,41.90
2019-03-01T09:28:19.501Z,57.30
2019-03-01T09:30:48.951Z,79.33
2019-03-01T09:33:21.241Z,38.37
2019-03-01T09:35:54.097Z,51.07
2019-03-01T09:38:23.550Z,50.00
2019-03-01T09:40:52.994Z,75.23
2019-03-01T09:43:24.712Z,44.70
2019-03-01T09:45:53.730Z,41.30
2019-03-01T09:48:23.207Z,74.47
2019-03-01T09:50:52.664Z,56.40
2019-03-01T09:53:22.109Z,43.40
2019-03-01T09:55:51.620Z,78.37
2019-03-01T09:58:21.114Z,64.87
2019-03-01T10:01:04.104Z,81.37
2019-03-01T10:03:33.574Z,42.93
2019-03-01T10:06:03.028Z,61.33
2019-03-01T10:08:32.488Z,49.10
2019-03-01T10:11:01.973Z,42.83
2019-03-01T10:13:31.422Z,47.50
2019-03-01T10:16:00.867Z,37.17
2019-03-01T10:18:30.346Z,66.63
2019-03-01T10:20:59.813Z,48.03
2019-03-01T10:23:29.294Z,56.63
2019-03-01T10:25:58.882Z,36.77
2019-03-01T10:28:28.340Z,54.50
2019-03-01T10:30:57.790Z,47.83
2019-03-01T10:33:27.242Z,65.83
2019-03-01T10:35:56.725Z,71.17
2019-03-01T10:38:26.181Z,38.50
2019-03-01T10:40:55.672Z,77.37
2019-03-01T10:43:25.126Z,64.43
2019-03-01T10:45:54.642Z,53.40
2019-03-01T10:48:24.100Z,74.40
2019-03-01T10:50:53.566Z,69.70
2019-03-01T10:53:23.142Z,71.33
2019-03-01T10:55:52.631Z,44.63
2019-03-01T10:58:22.088Z,58.80
2019-03-01T11:00:51.566Z,62.53
2019-03-01T11:03:21.028Z,76.47
2019-03-01T11:05:50.551Z,48.53
2019-03-01T11:08:20.026Z,43.77
2019-03-01T11:10:49.509Z,85.50
2019-03-01T11:13:19.100Z,87.57
2019-03-01T11:15:48.649Z,83.33
2019-03-01T11:18:18.173Z,100.27
2019-03-01T11:20:47.618Z,90.37
2019-03-01T11:23:17.062Z,95.10
2019-03-01T11:25:46.536Z,99.37
2019-03-01T11:28:16.009Z,104.23
2019-03-01T11:30:45.455Z,85.07
2019-03-01T11:33:15.190Z,90.70
2019-03-01T11:35:44.812Z,98.10
2019-03-01T11:38:14.301Z,101.83
2019-03-01T11:40:43.791Z,99.57
2019-03-01T11:43:13.248Z,88.43
2019-03-01T11:45:42.715Z,102.57
2019-03-01T11:48:12.177Z,99.37
2019-03-01T11:50:41.669Z,115.63
2019-03-01T11:53:11.121Z,92.73
2019-03-01T11:55:40.646Z,95.37
2019-03-01T11:58:10.126Z,74.70
2019-03-01T12:00:39.575Z,82.40
2019-03-01T12:03:09.056Z,89.97
2019-03-01T12:05:38.689Z,95.77
2019-03-01T12:08:08.177Z,81.10
2019-03-01T12:10:37.628Z,102.07
2019-03-01T12:13:07.114Z,99.00
2019-03-01T12:15:36.607Z,108.07
2019-03-01T12:18:06.056Z,96.40
2019-03-01T12:20:35.504Z,61.23
2019-03-01T12:23:05.072Z,101.70
2019-03-01T12:25:34.519Z,86.53
2019-03-01T12:28:04.063Z,94.50
2019-03-01T12:30:33.543Z,101.50
2019-03-01T12:33:03.025Z,96.63
2019-03-01T12:35:32.477Z,66.40
2019-03-01T12:38:01.970Z,106.60
2019-03-01T12:40:32.370Z,113.17
2019-03-01T12:43:01.877Z,107.87
2019-03-01T12:45:31.337Z,98.27
2019-03-01T12:48:00.787Z,96.43
2019-03-01T12:50:30.278Z,95.80
2019-03-01T12:52:59.729Z,87.73
2019-03-01T12:55:30.906Z,80.80
2019-03-01T12:58:00.492Z,85.97
2019-03-01T13:00:36.707Z,39.97
2019-03-01T13:03:09.060Z,34.30
2019-03-01T13:05:37.347Z,51.57
2019-03-01T13:08:06.910Z,86.57
2019-03-01T13:10:40.244Z,72.23
2019-03-01T13:13:10.514Z,74.70
2019-03-01T13:15:40.017Z,52.73
2019-03-01T13:18:10.360Z,69.60
2019-03-01T13:20:40.657Z,80.93
2019-03-01T13:23:10.135Z,69.40
2019-03-01T13:25:39.602Z,66.27
2019-03-01T13:28:09.083Z,38.77
2019-03-01T13:30:38.542Z,78.87
2019-03-01T13:33:08.014Z,70.73
2019-03-01T13:35:37.503Z,81.00
2019-03-01T13:38:06.958Z,72.37
2019-03-01T13:40:36.409Z,39.53
2019-03-01T13:43:05.979Z,55.63
2019-03-01T13:45:35.438Z,63.03
2019-03-01T13:48:04.954Z,68.53
2019-03-01T13:50:34.417Z,64.30
2019-03-01T13:53:03.891Z,73.23
2019-03-01T13:55:34.369Z,62.80
2019-03-01T13:58:03.824Z,53.07
2019-03-01T14:00:33.547Z,66.57
2019-03-01T14:03:02.985Z,59.40
2019-03-01T14:05:38.473Z,77.97
2019-03-01T14:08:09.234Z,76.60
2019-03-01T14:10:41.754Z,75.40
2019-03-01T14:13:11.256Z,45.90
2019-03-01T14:15:41.378Z,63.40
2019-03-01T14:18:10.860Z,72.23
2019-03-01T14:20:40.436Z,67.50
2019-03-01T14:23:09.876Z,31.50
2019-03-01T14:25:41.649Z,63.67
2019-03-01T14:28:10.547Z,75.90
2019-03-01T14:30:40.026Z,64.60
2019-03-01T14:33:09.494Z,68.57
2019-03-01T14:35:38.980Z,39.73
2019-03-01T14:38:08.427Z,68.50
2019-03-01T14:40:37.925Z,68.30
2019-03-01T14:43:07.373Z,52.87
2019-03-01T14:45:37.121Z,52.73
2019-03-01T14:48:08.796Z,67.70
2019-03-01T14:50:37.769Z,73.83
2019-03-01T14:53:07.258Z,73.13
2019-03-01T14:55:44.174Z,73.37
2019-03-01T14:58:22.363Z,72.57
2019-03-01T15:01:08.650Z,74.70
2019-03-01T15:03:40.120Z,78.53
2019-03-01T15:06:09.564Z,35.23
2019-03-01T15:08:40.387Z,83.33
2019-03-01T15:11:14.286Z,79.33
2019-03-01T15:13:44.569Z,78.73
2019-03-01T15:16:14.099Z,73.07
2019-03-01T15:18:44.344Z,88.30
2019-03-01T15:21:15.212Z,84.13
2019-03-01T15:23:44.672Z,84.43
2019-03-01T15:26:14.302Z,73.77
2019-03-01T15:28:55.231Z,75.07
2019-03-01T15:31:23.577Z,101.77
2019-03-01T15:33:53.029Z,75.53
2019-03-01T15:36:22.519Z,80.80
2019-03-01T15:38:51.967Z,96.20
2019-03-01T15:41:21.432Z,98.43
2019-03-01T15:43:50.880Z,89.93
2019-03-01T15:46:20.491Z,92.43
2019-03-01T15:48:49.993Z,105.93
2019-03-01T15:51:19.497Z,105.87
2019-03-01T15:53:49.000Z,92.10
2019-03-01T15:56:18.475Z,95.50
2019-03-01T15:58:47.939Z,105.17
2019-03-01T16:01:17.418Z,99.73
2019-03-01T16:03:46.887Z,99.83
2019-03-01T16:06:20.125Z,106.23
2019-03-01T16:08:48.843Z,103.17
2019-03-01T16:11:18.583Z,104.57
2019-03-01T16:13:51.642Z,105.17
2019-03-01T16:16:21.127Z,100.27
2019-03-01T16:18:50.599Z,104.43
2019-03-01T16:21:24.381Z,104.83
2019-03-01T16:23:53.827Z,114.87
2019-03-01T16:26:29.588Z,107.77
2019-03-01T16:28:54.647Z,109.50
2019-03-01T16:31:24.383Z,96.97
2019-03-01T16:33:53.863Z,96.80
2019-03-01T16:36:26.455Z,101.53
2019-03-01T16:38:56.447Z,90.40
2019-03-01T16:41:26.222Z,82.77
2019-03-01T16:43:55.697Z,79.00
2019-03-01T16:46:25.092Z,92.53
2019-03-01T16:48:54.644Z,111.47
2019-03-01T16:51:24.103Z,102.30
2019-03-01T16:53:53.560Z,109.93
2019-03-01T16:56:23.050Z,110.93
2019-03-01T16:58:52.509Z,106.17
2019-03-01T17:01:26.004Z,100.37
2019-03-01T17:03:54.823Z,93.90
2019-03-01T17:06:24.272Z,97.13
2019-03-01T17:08:53.739Z,92.43
2019-03-01T17:11:23.220Z,111.77
2019-03-01T17:13:53.917Z,102.33
2019-03-01T17:16:24.527Z,105.47
2019-03-01T17:18:54.132Z,105.40
2019-03-01T17:21:24.919Z,105.77
2019-03-01T17:23:54.722Z,106.23
2019-03-01T17:26:26.337Z,114.00
2019-03-01T17:28:55.515Z,109.07
2019-03-01T17:31:27.810Z,109.97
2019-03-01T17:33:57.423Z,102.50
2019-03-01T17:36:26.898Z,119.27
2019-03-01T17:38:56.351Z,129.33
2019-03-01T17:41:25.830Z,94.40
2019-03-01T17:43:55.288Z,40.90
2019-03-01T17:46:25.476Z,93.53
2019-03-01T17:48:57.382Z,95.07
2019-03-01T17:51:26.213Z,88.77
2019-03-01T17:53:55.656Z,108.17
2019-03-01T17:56:25.914Z,92.33
2019-03-01T17:58:55.369Z,97.33
2019-03-01T18:01:24.985Z,89.13
2019-03-01T18:03:54.470Z,111.53
2019-03-01T18:06:23.921Z,113.60
2019-03-01T18:08:53.391Z,94.63
2019-03-01T18:11:22.886Z,71.40
2019-03-01T18:13:52.339Z,94.07
2019-03-01T18:16:22.146Z,55.13
2019-03-01T18:18:53.088Z,58.30
2019-03-01T18:21:22.561Z,41.47
2019-03-01T18:23:52.014Z,75.73
2019-03-01T18:26:23.033Z,77.17
2019-03-01T18:28:53.227Z,81.60
2019-03-01T18:31:22.678Z,75.20
2019-03-01T18:33:53.657Z,83.40
2019-03-01T18:36:23.327Z,69.10
2019-03-01T18:38:52.776Z,78.30
2019-03-01T18:41:24.177Z,68.93
2019-03-01T18:43:53.461Z,79.60
2019-03-01T18:46:22.916Z,76.17
2019-03-01T18:48:52.400Z,77.57
2019-03-01T18:51:21.862Z,78.67
2019-03-01T18:53:51.314Z,90.67
2019-03-01T18:56:24.938Z,76.10
2019-03-01T18:58:53.252Z,82.47
2019-03-01T19:01:22.716Z,80.67
2019-03-01T19:03:52.251Z,82.20
2019-03-01T19:06:21.724Z,83.90
2019-03-01T19:08:51.171Z,82.57
2019-03-01T19:11:20.646Z,84.27
2019-03-01T19:13:50.095Z,78.63
2019-03-01T19:16:19.580Z,79.20
2019-03-01T19:18:51.256Z,91.23
2019-03-01T19:21:20.233Z,79.97
2019-03-01T19:23:49.692Z,93.07
2019-03-01T19:26:19.179Z,92.70
2019-03-01T19:28:49.041Z,73.20
2019-03-01T19:31:21.702Z,35.33
2019-03-01T19:33:49.720Z,37.37
2019-03-01T19:36:20.043Z,67.87
2019-03-01T19:38:49.503Z,50.93
2019-03-01T19:41:20.035Z,50.20
2019-03-01T19:43:57.386Z,69.10
2019-03-01T19:46:21.424Z,44.20
2019-03-01T19:48:50.914Z,39.23
2019-03-01T19:51:20.383Z,42.97
2019-03-01T19:53:49.803Z,46.67
2019-03-01T19:56:24.990Z,44.87
2019-03-01T19:58:51.590Z,39.83
2019-03-01T20:01:21.259Z,41.40
2019-03-01T20:03:50.763Z,45.17
2019-03-01T20:06:20.223Z,42.10
2019-03-01T20:08:51.620Z,46.97
2019-03-01T20:11:26.734Z,40.93
2019-03-01T20:13:54.797Z,54.10
2019-03-01T20:16:24.246Z,49.43
2019-03-01T20:18:53.794Z,39.13
2019-03-01T20:21:24.735Z,53.10
2019-03-01T20:23:54.195Z,45.00
2019-03-01T20:26:26.673Z,32.80
2019-03-01T20:28:54.878Z,51.03
2019-03-01T20:31:24.327Z,54.63
2019-03-01T20:33:53.773Z,41.30
2019-03-01T20:36:27.613Z,32.03
2019-03-01T20:38:57.549Z,41.50
2019-03-01T20:41:27.012Z,37.53
2019-03-01T20:43:56.504Z,33.53
2019-03-01T20:46:25.964Z,45.30
2019-03-01T20:48:55.417Z,45.07
2019-03-01T20:51:27.046Z,50.77
2019-03-01T20:54:01.025Z,50.60
2019-03-01T20:56:30.197Z,63.50
2019-03-01T20:58:59.675Z,57.03
2019-03-01T21:01:30.151Z,49.30
2019-03-01T21:04:01.446Z,106.13
2019-03-01T21:06:30.816Z,92.30
2019-03-01T21:09:00.716Z,51.63
2019-03-01T21:11:31.526Z,46.60
2019-03-01T21:14:00.970Z,62.63
2019-03-01T21:16:30.453Z,52.70
2019-03-01T21:18:59.996Z,47.27
2019-03-01T21:21:29.763Z,60.57
2019-03-01T21:23:59.317Z,64.00
2019-03-01T21:26:28.763Z,81.83
2019-03-01T21:28:58.224Z,74.73
2019-03-01T21:31:27.707Z,75.10
2019-03-01T21:33:59.432Z,66.37
2019-03-01T21:36:28.343Z,36.80
2019-03-01T21:38:58.161Z,48.63
2019-03-01T21:41:27.606Z,61.60
2019-03-01T21:43:57.063Z,52.20
2019-03-01T21:46:26.548Z,60.93
2019-03-01T21:48:56.796Z,65.47
2019-03-01T21:51:27.192Z,49.67
2019-03-01T21:53:56.671Z,41.80
2019-03-01T21:56:26.132Z,58.10
2019-03-01T21:58:55.590Z,59.47
2019-03-01T22:01:25.071Z,57.30
2019-03-01T22:03:54.614Z,62.43
2019-03-01T22:06:24.728Z,57.23
2019-03-01T22:08:54.494Z,61.97
2019-03-01T22:11:23.952Z,64.53
2019-03-01T22:13:53.410Z,64.17
2019-03-01T22:16:22.897Z,71.30
2019-03-01T22:18:55.454Z,60.60
2019-03-01T22:21:23.959Z,68.47
2019-03-01T22:23:53.450Z,63.23
2019-03-01T22:26:22.895Z,61.07
2019-03-01T22:28:52.358Z,68.47
2019-03-01T22:31:21.829Z,68.23
2019-03-01T22:33:52.599Z,91.93
2019-03-01T22:36:22.470Z,68.70
2019-03-01T22:38:51.974Z,68.93
2019-03-01T22:41:21.417Z,69.87
2019-03-01T22:43:50.890Z,68.70
2019-03-01T22:46:21.085Z,86.67
2019-03-01T22:48:56.371Z,81.37
2019-03-01T22:51:22.739Z,67.67
2019-03-01T22:53:52.222Z,56.60
2019-03-01T22:56:22.599Z,63.33
2019-03-01T22:58:52.104Z,66.30
2019-03-01T23:01:23.676Z,61.63
2019-03-01T23:03:54.883Z,60.87
2019-03-01T23:06:24.315Z,66.37
2019-03-01T23:08:53.869Z,64.90
2019-03-01T23:11:23.314Z,66.77
2019-03-01T23:13:55.790Z,87.83
2019-03-01T23:16:23.978Z,187.77
2019-03-01T23:18:56.647Z,165.03
2019-03-01T23:21:24.631Z,292.60
2019-03-01T23:23:55.807Z,115.27
2019-03-01T23:26:25.301Z,130.43
2019-03-01T23:28:54.761Z,125.37
2019-03-01T23:31:24.232Z,108.30
2019-03-01T23:33:53.681Z,56.13
2019-03-01T23:36:25.011Z,60.43
2019-03-01T23:38:54.328Z,59.80
2019-03-01T23:41:23.795Z,53.63
2019-03-01T23:43:53.251Z,58.03
2019-03-01T23:46:25.631Z,69.13
2019-03-01T23:48:54.501Z,62.03
2019-03-01T23:51:23.962Z,48.60
2019-03-01T23:53:53.447Z,50.07
2019-03-01T23:56:22.904Z,56.07
2019-03-01T23:58:53.012Z,55.53
